sensor_id;sensor_type;location;lat;lon;timestamp;pressure;altitude;pressure_sealevel;temperature;humidity
11349;BME280;5729;43.570;27.826;2023-04-03T00:01:06;98423.50;;;9.93;100.00
11349;BME280;5729;43.570;27.826;2023-04-03T00:03:32;98429.66;;;9.97;100.00
11349;BME280;5729;43.570;27.826;2023-04-03T00:05:58;98423.94;;;9.98;100.00
11349;BME280;5729;43.570;27.826;2023-04-03T00:08:24;98409.22;;;9.89;100.00
11349;BME280;5729;43.570;27.826;2023-04-03T00:10:49;98418.53;;;9.98;100.00
11349;BME280;5729;43.570;27.826;2023-04-03T00:13:15;98431.59;;;9.96;100.00
11349;BME280;5729;43.570;27.826;2023-04-03T00:15:41;98410.16;;;9.70;100.00
11349;BME280;5729;43.570;27.826;2023-04-03T00:18:07;98429.91;;;9.81;100.00
11349;BME280;5729;43.570;27.826;2023-04-03T00:20:33;98427.94;;;9.78;100.00
11349;BME280;5729;43.570;27.826;2023-04-03T00:23:00;98435.16;;;9.74;100.00
11349;BME280;5729;43.570;27.826;2023-04-03T00:25:25;98430.50;;;9.71;100.00
11349;BME280;5729;43.570;27.826;2023-04-03T00:27:51;98418.13;;;9.63;100.00
11349;BME280;5729;43.570;27.826;2023-04-03T00:30:19;98435.94;;;9.74;100.00
11349;BME280;5729;43.570;27.826;2023-04-03T00:32:47;98432.03;;;9.68;100.00
11349;BME280;5729;43.570;27.826;2023-04-03T00:35:12;98428.97;;;9.70;100.00
11349;BME280;5729;43.570;27.826;2023-04-03T00:37:41;98440.47;;;9.67;100.00
11349;BME280;5729;43.570;27.826;2023-04-03T00:40:07;98430.78;;;9.59;100.00
11349;BME280;5729;43.570;27.826;2023-04-03T00:42:33;98439.63;;;9.59;100.00
11349;BME280;5729;43.570;27.826;2023-04-03T00:47:25;98437.16;;;9.51;100.00
11349;BME280;5729;43.570;27.826;2023-04-03T00:49:53;98431.03;;;9.50;100.00
11349;BME280;5729;43.570;27.826;2023-04-03T00:52:22;98443.31;;;9.51;100.00
11349;BME280;5729;43.570;27.826;2023-04-03T00:54:50;98444.81;;;9.48;100.00
11349;BME280;5729;43.570;27.826;2023-04-03T00:57:17;98434.06;;;9.48;100.00
11349;BME280;5729;43.570;27.826;2023-04-03T00:59:48;98433.56;;;9.39;100.00
11349;BME280;5729;43.570;27.826;2023-04-03T01:02:16;98438.91;;;9.36;100.00
11349;BME280;5729;43.570;27.826;2023-04-03T01:04:42;98425.41;;;9.32;100.00
11349;BME280;5729;43.570;27.826;2023-04-03T01:07:18;98434.56;;;9.28;100.00
11349;BME280;5729;43.570;27.826;2023-04-03T01:09:46;98444.09;;;9.22;100.00
11349;BME280;5729;43.570;27.826;2023-04-03T01:12:36;98442.00;;;8.85;100.00
11349;BME280;5729;43.570;27.826;2023-04-03T01:15:08;98446.69;;;8.92;100.00
11349;BME280;5729;43.570;27.826;2023-04-03T01:25:42;98441.72;;;8.94;100.00
11349;BME280;5729;43.570;27.826;2023-04-03T01:28:13;98446.69;;;8.92;100.00
11349;BME280;5729;43.570;27.826;2023-04-03T01:30:45;98443.97;;;8.88;100.00
11349;BME280;5729;43.570;27.826;2023-04-03T01:33:12;98421.94;;;8.79;100.00
11349;BME280;5729;43.570;27.826;2023-04-03T01:35:38;98425.50;;;8.87;100.00
11349;BME280;5729;43.570;27.826;2023-04-03T01:38:03;98437.47;;;8.89;100.00
11349;BME280;5729;43.570;27.826;2023-04-03T01:40:29;98405.75;;;8.76;100.00
11349;BME280;5729;43.570;27.826;2023-04-03T01:42:54;98431.66;;;8.87;100.00
11349;BME280;5729;43.570;27.826;2023-04-03T01:45:20;98423.53;;;8.84;100.00
11349;BME280;5729;43.570;27.826;2023-04-03T01:47:45;98426.13;;;8.77;100.00
11349;BME280;5729;43.570;27.826;2023-04-03T01:50:11;98445.56;;;8.70;100.00
11349;BME280;5729;43.570;27.826;2023-04-03T01:52:36;98446.00;;;8.49;100.00
11349;BME280;5729;43.570;27.826;2023-04-03T01:55:02;98450.66;;;8.52;100.00
11349;BME280;5729;43.570;27.826;2023-04-03T01:57:27;98452.97;;;8.54;100.00
11349;BME280;5729;43.570;27.826;2023-04-03T01:59:53;98451.78;;;8.51;100.00
11349;BME280;5729;43.570;27.826;2023-04-03T02:02:18;98451.78;;;8.51;100.00
11349;BME280;5729;43.570;27.826;2023-04-03T02:04:45;98465.63;;;8.53;100.00
11349;BME280;5729;43.570;27.826;2023-04-03T02:07:11;98465.31;;;8.58;100.00
11349;BME280;5729;43.570;27.826;2023-04-03T02:09:37;98466.88;;;8.59;100.00
11349;BME280;5729;43.570;27.826;2023-04-03T02:12:02;98472.66;;;8.61;100.00
11349;BME280;5729;43.570;27.826;2023-04-03T02:14:28;98462.72;;;8.62;100.00
11349;BME280;5729;43.570;27.826;2023-04-03T02:16:53;98467.72;;;8.63;100.00
11349;BME280;5729;43.570;27.826;2023-04-03T02:19:19;98465.75;;;8.60;100.00
11349;BME280;5729;43.570;27.826;2023-04-03T02:21:44;98472.66;;;8.61;100.00
11349;BME280;5729;43.570;27.826;2023-04-03T02:24:10;98462.44;;;8.48;100.00
11349;BME280;5729;43.570;27.826;2023-04-03T02:26:35;98475.06;;;8.66;100.00
11349;BME280;5729;43.570;27.826;2023-04-03T02:29:01;98480.09;;;8.68;100.00
11349;BME280;5729;43.570;27.826;2023-04-03T02:31:26;98485.88;;;8.70;100.00
11349;BME280;5729;43.570;27.826;2023-04-03T02:33:52;98487.91;;;8.77;100.00
11349;BME280;5729;43.570;27.826;2023-04-03T02:36:17;98489.88;;;8.80;100.00
11349;BME280;5729;43.570;27.826;2023-04-03T02:38:43;98492.31;;;8.88;100.00
11349;BME280;5729;43.570;27.826;2023-04-03T02:41:10;98486.94;;;8.88;100.00
11349;BME280;5729;43.570;27.826;2023-04-03T02:43:37;98486.88;;;8.85;100.00
11349;BME280;5729;43.570;27.826;2023-04-03T02:46:03;98498.22;;;8.97;100.00
11349;BME280;5729;43.570;27.826;2023-04-03T02:48:28;98492.19;;;9.04;100.00
11349;BME280;5729;43.570;27.826;2023-04-03T02:50:54;98491.78;;;9.02;100.00
11349;BME280;5729;43.570;27.826;2023-04-03T02:53:19;98493.16;;;8.92;100.00
11349;BME280;5729;43.570;27.826;2023-04-03T02:55:45;98497.47;;;8.97;100.00
11349;BME280;5729;43.570;27.826;2023-04-03T02:58:11;98494.66;;;8.90;100.00
11349;BME280;5729;43.570;27.826;2023-04-03T03:00:37;98502.66;;;8.86;100.00
11349;BME280;5729;43.570;27.826;2023-04-03T03:03:03;98500.31;;;8.85;100.00
11349;BME280;5729;43.570;27.826;2023-04-03T03:05:29;98491.53;;;8.65;100.00
11349;BME280;5729;43.570;27.826;2023-04-03T03:07:54;98507.06;;;8.75;100.00
11349;BME280;5729;43.570;27.826;2023-04-03T03:10:20;98513.50;;;8.70;100.00
11349;BME280;5729;43.570;27.826;2023-04-03T03:12:46;98504.75;;;8.73;100.00
11349;BME280;5729;43.570;27.826;2023-04-03T03:15:11;98513.50;;;8.70;100.00
11349;BME280;5729;43.570;27.826;2023-04-03T03:17:37;98495.47;;;8.71;100.00
11349;BME280;5729;43.570;27.826;2023-04-03T03:20:04;98511.38;;;8.80;100.00
11349;BME280;5729;43.570;27.826;2023-04-03T03:22:30;98516.38;;;8.81;100.00
11349;BME280;5729;43.570;27.826;2023-04-03T03:24:55;98513.28;;;8.56;100.00
11349;BME280;5729;43.570;27.826;2023-04-03T03:27:21;98516.94;;;8.67;100.00
11349;BME280;5729;43.570;27.826;2023-04-03T03:29:46;98513.47;;;8.67;100.00
11349;BME280;5729;43.570;27.826;2023-04-03T03:32:12;98511.84;;;8.62;100.00
11349;BME280;5729;43.570;27.826;2023-04-03T03:34:37;98516.00;;;8.60;100.00
11349;BME280;5729;43.570;27.826;2023-04-03T03:37:03;98512.78;;;8.73;100.00
11349;BME280;5729;43.570;27.826;2023-04-03T03:39:28;98522.84;;;8.77;100.00
11349;BME280;5729;43.570;27.826;2023-04-03T03:41:54;98522.84;;;8.77;100.00
11349;BME280;5729;43.570;27.826;2023-04-03T03:44:20;98529.81;;;8.81;100.00
11349;BME280;5729;43.570;27.826;2023-04-03T03:46:46;98514.94;;;8.64;100.00
11349;BME280;5729;43.570;27.826;2023-04-03T03:49:11;98530.53;;;8.78;100.00
11349;BME280;5729;43.570;27.826;2023-04-03T03:51:38;98537.41;;;8.76;100.00
11349;BME280;5729;43.570;27.826;2023-04-03T03:54:04;98542.78;;;8.76;100.00
11349;BME280;5729;43.570;27.826;2023-04-03T03:56:29;98552.16;;;8.85;100.00
11349;BME280;5729;43.570;27.826;2023-04-03T03:58:55;98552.09;;;8.82;100.00
11349;BME280;5729;43.570;27.826;2023-04-03T04:01:22;98549.03;;;8.83;100.00
11349;BME280;5729;43.570;27.826;2023-04-03T04:03:47;98547.56;;;8.86;100.00
11349;BME280;5729;43.570;27.826;2023-04-03T04:06:13;98546.84;;;8.89;100.00
11349;BME280;5729;43.570;27.826;2023-04-03T04:08:39;98551.25;;;8.78;100.00
11349;BME280;5729;43.570;27.826;2023-04-03T04:11:05;98550.59;;;8.84;100.00
11349;BME280;5729;43.570;27.826;2023-04-03T04:13:30;98558.13;;;8.75;100.00
11349;BME280;5729;43.570;27.826;2023-04-03T04:15:56;98556.56;;;8.74;100.00
11349;BME280;5729;43.570;27.826;2023-04-03T04:18:21;98561.59;;;8.76;100.00
11349;BME280;5729;43.570;27.826;2023-04-03T04:20:48;98562.44;;;8.80;100.00
11349;BME280;5729;43.570;27.826;2023-04-03T04:23:13;98532.53;;;8.62;100.00
11349;BME280;5729;43.570;27.826;2023-04-03T04:25:39;98555.19;;;8.84;100.00
11349;BME280;5729;43.570;27.826;2023-04-03T04:28:05;98554.66;;;8.97;100.00
11349;BME280;5729;43.570;27.826;2023-04-03T04:30:31;98549.22;;;8.94;100.00
11349;BME280;5729;43.570;27.826;2023-04-03T04:32:56;98565.13;;;9.02;100.00
11349;BME280;5729;43.570;27.826;2023-04-03T04:35:22;98564.28;;;8.98;100.00
11349;BME280;5729;43.570;27.826;2023-04-03T04:37:47;98557.44;;;9.01;100.00
11349;BME280;5729;43.570;27.826;2023-04-03T04:40:13;98572.19;;;9.10;100.00
11349;BME280;5729;43.570;27.826;2023-04-03T04:42:38;98579.16;;;9.15;100.00
11349;BME280;5729;43.570;27.826;2023-04-03T04:45:04;98577.25;;;9.16;100.00
11349;BME280;5729;43.570;27.826;2023-04-03T04:47:30;98580.34;;;9.18;100.00
11349;BME280;5729;43.570;27.826;2023-04-03T04:49:55;98574.88;;;9.10;100.00
11349;BME280;5729;43.570;27.826;2023-04-03T04:52:21;98584.31;;;9.24;100.00
11349;BME280;5729;43.570;27.826;2023-04-03T04:54:46;98588.31;;;9.33;100.00
11349;BME280;5729;43.570;27.826;2023-04-03T04:57:12;98574.53;;;9.38;100.00
11349;BME280;5729;43.570;27.826;2023-04-03T04:59:37;98580.06;;;9.45;100.00
11349;BME280;5729;43.570;27.826;2023-04-03T05:02:03;98570.28;;;9.60;100.00
11349;BME280;5729;43.570;27.826;2023-04-03T05:04:28;98580.69;;;9.62;100.00
11349;BME280;5729;43.570;27.826;2023-04-03T05:06:54;98586.56;;;9.71;100.00
11349;BME280;5729;43.570;27.826;2023-04-03T05:09:20;98571.97;;;9.72;100.00
11349;BME280;5729;43.570;27.826;2023-04-03T05:11:46;98583.31;;;9.84;100.00
11349;BME280;5729;43.570;27.826;2023-04-03T05:14:12;98586.78;;;9.85;100.00
11349;BME280;5729;43.570;27.826;2023-04-03T05:16:37;98584.47;;;9.83;100.00
11349;BME280;5729;43.570;27.826;2023-04-03T05:19:03;98584.81;;;9.56;100.00
11349;BME280;5729;43.570;27.826;2023-04-03T05:21:28;98599.63;;;9.69;100.00
11349;BME280;5729;43.570;27.826;2023-04-03T05:23:58;98589.59;;;9.66;100.00
11349;BME280;5729;43.570;27.826;2023-04-03T05:26:24;98570.69;;;9.62;100.00
11349;BME280;5729;43.570;27.826;2023-04-03T05:28:50;98585.44;;;9.72;100.00
11349;BME280;5729;43.570;27.826;2023-04-03T05:31:16;98587.47;;;9.78;100.00
11349;BME280;5729;43.570;27.826;2023-04-03T05:33:42;98568.00;;;9.62;100.00
11349;BME280;5729;43.570;27.826;2023-04-03T05:36:07;98581.25;;;9.74;100.00
11349;BME280;5729;43.570;27.826;2023-04-03T05:38:33;98575.66;;;9.87;100.00
11349;BME280;5729;43.570;27.826;2023-04-03T05:40:59;98587.72;;;9.96;100.00
11349;BME280;5729;43.570;27.826;2023-04-03T05:43:24;98593.59;;;10.05;100.00
11349;BME280;5729;43.570;27.826;2023-04-03T05:45:51;98600.97;;;10.08;100.00
11349;BME280;5729;43.570;27.826;2023-04-03T05:48:16;98598.22;;;10.05;100.00
11349;BME280;5729;43.570;27.826;2023-04-03T05:50:42;98610.41;;;10.22;100.00
11349;BME280;5729;43.570;27.826;2023-04-03T05:53:30;98602.50;;;10.36;100.00
11349;BME280;5729;43.570;27.826;2023-04-03T05:55:57;98603.72;;;10.38;100.00
11349;BME280;5729;43.570;27.826;2023-04-03T05:58:23;98605.00;;;10.51;100.00
11349;BME280;5729;43.570;27.826;2023-04-03T06:00:48;98603.41;;;10.47;100.00
11349;BME280;5729;43.570;27.826;2023-04-03T06:03:14;98609.34;;;10.60;100.00
11349;BME280;5729;43.570;27.826;2023-04-03T06:05:39;98616.41;;;10.71;100.00
11349;BME280;5729;43.570;27.826;2023-04-03T06:08:05;98618.53;;;10.88;100.00
11349;BME280;5729;43.570;27.826;2023-04-03T06:10:31;98624.06;;;11.03;100.00
11349;BME280;5729;43.570;27.826;2023-04-03T06:12:56;98622.97;;;11.11;100.00
11349;BME280;5729;43.570;27.826;2023-04-03T06:15:21;98600.56;;;11.03;100.00
11349;BME280;5729;43.570;27.826;2023-04-03T06:17:47;98614.34;;;11.35;100.00
11349;BME280;5729;43.570;27.826;2023-04-03T06:20:12;98632.66;;;11.56;100.00
11349;BME280;5729;43.570;27.826;2023-04-03T06:22:38;98640.41;;;11.64;100.00
11349;BME280;5729;43.570;27.826;2023-04-03T06:25:04;98639.78;;;11.78;100.00
11349;BME280;5729;43.570;27.826;2023-04-03T06:27:30;98646.00;;;11.82;100.00
11349;BME280;5729;43.570;27.826;2023-04-03T06:29:55;98645.22;;;11.85;100.00
11349;BME280;5729;43.570;27.826;2023-04-03T06:32:21;98668.22;;;12.20;100.00
11349;BME280;5729;43.570;27.826;2023-04-03T06:34:46;98654.84;;;12.38;100.00
11349;BME280;5729;43.570;27.826;2023-04-03T06:37:16;98658.69;;;12.36;100.00
11349;BME280;5729;43.570;27.826;2023-04-03T06:39:42;98638.22;;;12.35;100.00
11349;BME280;5729;43.570;27.826;2023-04-03T06:42:08;98658.38;;;12.49;100.00
11349;BME280;5729;43.570;27.826;2023-04-03T06:44:33;98665.34;;;12.57;100.00
11349;BME280;5729;43.570;27.826;2023-04-03T06:47:00;98666.84;;;12.40;100.00
11349;BME280;5729;43.570;27.826;2023-04-03T06:49:25;98636.69;;;12.42;100.00
11349;BME280;5729;43.570;27.826;2023-04-03T06:51:51;98654.97;;;12.66;100.00
11349;BME280;5729;43.570;27.826;2023-04-03T06:54:16;98662.75;;;12.75;100.00
11349;BME280;5729;43.570;27.826;2023-04-03T06:56:42;98670.13;;;12.92;100.00
11349;BME280;5729;43.570;27.826;2023-04-03T06:59:09;98660.06;;;12.82;100.00
11349;BME280;5729;43.570;27.826;2023-04-03T07:01:35;98663.94;;;12.91;100.00
11349;BME280;5729;43.570;27.826;2023-04-03T07:04:01;98668.72;;;13.19;100.00
11349;BME280;5729;43.570;27.826;2023-04-03T07:06:26;98677.28;;;13.53;100.00
11349;BME280;5729;43.570;27.826;2023-04-03T07:08:52;98674.56;;;13.60;100.00
11349;BME280;5729;43.570;27.826;2023-04-03T07:11:18;98675.75;;;13.88;100.00
11349;BME280;5729;43.570;27.826;2023-04-03T07:13:44;98665.28;;;14.04;100.00
11349;BME280;5729;43.570;27.826;2023-04-03T07:16:10;98673.75;;;14.24;100.00
11349;BME280;5729;43.570;27.826;2023-04-03T07:18:36;98688.47;;;14.40;100.00
11349;BME280;5729;43.570;27.826;2023-04-03T07:21:02;98664.06;;;14.33;100.00
11349;BME280;5729;43.570;27.826;2023-04-03T07:23:27;98667.84;;;14.68;100.00
11349;BME280;5729;43.570;27.826;2023-04-03T07:25:54;98668.06;;;15.09;100.00
11349;BME280;5729;43.570;27.826;2023-04-03T07:28:20;98661.81;;;15.22;100.00
11349;BME280;5729;43.570;27.826;2023-04-03T07:31:03;98659.69;;;15.48;100.00
11349;BME280;5729;43.570;27.826;2023-04-03T07:33:30;98668.53;;;15.66;100.00
11349;BME280;5729;43.570;27.826;2023-04-03T07:35:56;98672.97;;;15.90;100.00
11349;BME280;5729;43.570;27.826;2023-04-03T07:38:21;98661.34;;;15.90;100.00
11349;BME280;5729;43.570;27.826;2023-04-03T07:40:48;98646.31;;;16.16;100.00
11349;BME280;5729;43.570;27.826;2023-04-03T07:43:15;98669.38;;;16.42;100.00
11349;BME280;5729;43.570;27.826;2023-04-03T07:45:41;98678.72;;;16.37;100.00
11349;BME280;5729;43.570;27.826;2023-04-03T07:48:11;98677.25;;;16.70;100.00
11349;BME280;5729;43.570;27.826;2023-04-03T07:50:36;98684.53;;;16.80;100.00
11349;BME280;5729;43.570;27.826;2023-04-03T07:53:02;98683.97;;;17.23;100.00
11349;BME280;5729;43.570;27.826;2023-04-03T07:55:28;98673.97;;;17.43;100.00
11349;BME280;5729;43.570;27.826;2023-04-03T07:57:54;98692.50;;;17.52;100.00
11349;BME280;5729;43.570;27.826;2023-04-03T08:00:20;98690.66;;;17.72;100.00
11349;BME280;5729;43.570;27.826;2023-04-03T08:02:46;98683.56;;;17.51;100.00
11349;BME280;5729;43.570;27.826;2023-04-03T08:05:21;98683.78;;;17.37;100.00
11349;BME280;5729;43.570;27.826;2023-04-03T08:07:47;98681.97;;;17.27;100.00
11349;BME280;5729;43.570;27.826;2023-04-03T08:10:14;98679.38;;;17.47;100.00
11349;BME280;5729;43.570;27.826;2023-04-03T08:12:40;98675.81;;;17.76;100.00
11349;BME280;5729;43.570;27.826;2023-04-03T08:15:06;98697.81;;;17.89;100.00
11349;BME280;5729;43.570;27.826;2023-04-03T08:17:33;98684.56;;;17.64;100.00
11349;BME280;5729;43.570;27.826;2023-04-03T08:19:59;98712.22;;;18.13;100.00
11349;BME280;5729;43.570;27.826;2023-04-03T08:22:24;98707.22;;;18.31;100.00
11349;BME280;5729;43.570;27.826;2023-04-03T08:24:49;98714.44;;;18.41;100.00
11349;BME280;5729;43.570;27.826;2023-04-03T08:27:15;98713.53;;;18.28;100.00
11349;BME280;5729;43.570;27.826;2023-04-03T08:29:41;98703.75;;;18.94;100.00
11349;BME280;5729;43.570;27.826;2023-04-03T08:32:07;98704.38;;;19.37;100.00
11349;BME280;5729;43.570;27.826;2023-04-03T08:34:32;98692.06;;;21.13;100.00
11349;BME280;5729;43.570;27.826;2023-04-03T08:37:02;98687.63;;;23.70;76.54
11349;BME280;5729;43.570;27.826;2023-04-03T08:39:27;98698.91;;;23.63;71.50
11349;BME280;5729;43.570;27.826;2023-04-03T08:41:55;98703.69;;;23.49;74.07
11349;BME280;5729;43.570;27.826;2023-04-03T08:49:53;98712.22;;;23.73;72.77
11349;BME280;5729;43.570;27.826;2023-04-03T08:55:40;98695.09;;;26.32;52.37
11349;BME280;5729;43.570;27.826;2023-04-03T08:58:16;98695.22;;;24.88;58.72
11349;BME280;5729;43.570;27.826;2023-04-03T09:00:47;98689.91;;;23.40;68.73
11349;BME280;5729;43.570;27.826;2023-04-03T09:03:16;98694.97;;;22.67;72.48
11349;BME280;5729;43.570;27.826;2023-04-03T09:05:50;98692.72;;;22.75;77.75
11349;BME280;5729;43.570;27.826;2023-04-03T09:11:20;98694.25;;;25.27;62.09
11349;BME280;5729;43.570;27.826;2023-04-03T09:13:59;98701.88;;;23.46;63.40
11349;BME280;5729;43.570;27.826;2023-04-03T09:19:19;98696.09;;;23.23;77.61
11349;BME280;5729;43.570;27.826;2023-04-03T09:21:46;98691.28;;;23.67;68.93
11349;BME280;5729;43.570;27.826;2023-04-03T09:24:16;98687.91;;;24.57;66.40
11349;BME280;5729;43.570;27.826;2023-04-03T09:26:50;98682.69;;;24.78;59.80
11349;BME280;5729;43.570;27.826;2023-04-03T09:29:22;98688.53;;;24.43;63.02
11349;BME280;5729;43.570;27.826;2023-04-03T09:32:18;98680.41;;;25.37;59.21
11349;BME280;5729;43.570;27.826;2023-04-03T09:34:44;98675.63;;;24.77;54.77
11349;BME280;5729;43.570;27.826;2023-04-03T09:37:34;98662.91;;;23.88;62.03
11349;BME280;5729;43.570;27.826;2023-04-03T09:40:01;98669.19;;;24.07;62.54
11349;BME280;5729;43.570;27.826;2023-04-03T09:42:29;98660.78;;;24.10;61.59
11349;BME280;5729;43.570;27.826;2023-04-03T09:44:59;98666.41;;;23.08;72.54
11349;BME280;5729;43.570;27.826;2023-04-03T09:47:28;98663.72;;;23.27;69.30
11349;BME280;5729;43.570;27.826;2023-04-03T09:52:42;98664.03;;;22.32;79.05
11349;BME280;5729;43.570;27.826;2023-04-03T09:55:21;98645.16;;;22.00;84.26
11349;BME280;5729;43.570;27.826;2023-04-03T09:57:53;98656.13;;;21.87;83.56
11349;BME280;5729;43.570;27.826;2023-04-03T10:00:25;98645.75;;;21.19;88.01
11349;BME280;5729;43.570;27.826;2023-04-03T10:02:53;98643.78;;;20.78;94.80
11349;BME280;5729;43.570;27.826;2023-04-03T10:05:32;98647.00;;;20.76;99.80
11349;BME280;5729;43.570;27.826;2023-04-03T10:08:15;98649.50;;;20.83;97.41
11349;BME280;5729;43.570;27.826;2023-04-03T10:10:45;98648.38;;;21.35;100.00
11349;BME280;5729;43.570;27.826;2023-04-03T10:15:43;98651.97;;;22.30;91.23
11349;BME280;5729;43.570;27.826;2023-04-03T10:21:15;98661.50;;;23.83;65.05
11349;BME280;5729;43.570;27.826;2023-04-03T10:24:13;98657.28;;;24.28;65.15
11349;BME280;5729;43.570;27.826;2023-04-03T10:34:29;98659.56;;;24.75;56.58
11349;BME280;5729;43.570;27.826;2023-04-03T10:54:00;98631.19;;;21.22;87.00
11349;BME280;5729;43.570;27.826;2023-04-03T10:56:40;98637.97;;;21.55;88.95
11349;BME280;5729;43.570;27.826;2023-04-03T11:01:41;98630.75;;;22.96;72.94
11349;BME280;5729;43.570;27.826;2023-04-03T11:04:09;98628.72;;;22.87;74.82
11349;BME280;5729;43.570;27.826;2023-04-03T11:06:44;98623.53;;;23.20;66.04
11349;BME280;5729;43.570;27.826;2023-04-03T11:09:31;98624.00;;;23.18;65.42
11349;BME280;5729;43.570;27.826;2023-04-03T11:12:04;98619.22;;;22.79;66.15
11349;BME280;5729;43.570;27.826;2023-04-03T11:14:38;98631.84;;;22.33;70.98
11349;BME280;5729;43.570;27.826;2023-04-03T11:17:21;98624.44;;;22.21;77.77
11349;BME280;5729;43.570;27.826;2023-04-03T11:20:14;98617.69;;;22.78;67.91
11349;BME280;5729;43.570;27.826;2023-04-03T11:25:30;98611.41;;;22.12;70.46
11349;BME280;5729;43.570;27.826;2023-04-03T11:28:03;98615.63;;;21.79;74.53
11349;BME280;5729;43.570;27.826;2023-04-03T11:36:05;98603.75;;;21.09;88.26
11349;BME280;5729;43.570;27.826;2023-04-03T11:38:37;98600.13;;;20.87;86.92
11349;BME280;5729;43.570;27.826;2023-04-03T11:41:07;98612.63;;;20.88;86.30
11349;BME280;5729;43.570;27.826;2023-04-03T11:43:40;98611.06;;;20.74;85.56
11349;BME280;5729;43.570;27.826;2023-04-03T11:46:08;98618.75;;;20.21;93.88
11349;BME280;5729;43.570;27.826;2023-04-03T11:53:43;98601.66;;;19.56;100.00
11349;BME280;5729;43.570;27.826;2023-04-03T12:01:50;98612.31;;;20.57;100.00
11349;BME280;5729;43.570;27.826;2023-04-03T12:04:19;98614.50;;;21.29;100.00
11349;BME280;5729;43.570;27.826;2023-04-03T12:09:28;98608.25;;;22.79;90.70
11349;BME280;5729;43.570;27.826;2023-04-03T12:11:56;98609.47;;;23.18;81.53
11349;BME280;5729;43.570;27.826;2023-04-03T12:14:23;98608.72;;;23.58;75.30
11349;BME280;5729;43.570;27.826;2023-04-03T12:16:52;98616.81;;;23.61;71.13
11349;BME280;5729;43.570;27.826;2023-04-03T12:19:37;98611.16;;;22.41;81.46
11349;BME280;5729;43.570;27.826;2023-04-03T12:22:13;98614.84;;;22.03;83.88
11349;BME280;5729;43.570;27.826;2023-04-03T12:24:41;98612.03;;;21.69;90.55
11349;BME280;5729;43.570;27.826;2023-04-03T12:27:27;98615.28;;;21.42;93.15
11349;BME280;5729;43.570;27.826;2023-04-03T12:32:48;98604.38;;;20.75;97.87
11349;BME280;5729;43.570;27.826;2023-04-03T12:35:39;98599.53;;;20.66;100.00
11349;BME280;5729;43.570;27.826;2023-04-03T12:41:17;98593.47;;;20.17;100.00
11349;BME280;5729;43.570;27.826;2023-04-03T12:44:01;98591.91;;;20.16;100.00
11349;BME280;5729;43.570;27.826;2023-04-03T12:46:59;98587.16;;;19.59;100.00
11349;BME280;5729;43.570;27.826;2023-04-03T12:51:54;98583.38;;;19.37;100.00
11349;BME280;5729;43.570;27.826;2023-04-03T12:54:36;98583.94;;;19.12;100.00
11349;BME280;5729;43.570;27.826;2023-04-03T12:57:16;98573.19;;;19.05;100.00
11349;BME280;5729;43.570;27.826;2023-04-03T12:59:43;98572.78;;;19.06;100.00
11349;BME280;5729;43.570;27.826;2023-04-03T13:04:53;98558.31;;;18.73;100.00
11349;BME280;5729;43.570;27.826;2023-04-03T13:07:23;98572.69;;;18.74;100.00
11349;BME280;5729;43.570;27.826;2023-04-03T13:12:33;98582.34;;;18.78;100.00
11349;BME280;5729;43.570;27.826;2023-04-03T13:15:03;98596.63;;;18.46;100.00
11349;BME280;5729;43.570;27.826;2023-04-03T13:17:38;98587.78;;;18.62;100.00
11349;BME280;5729;43.570;27.826;2023-04-03T13:20:30;98589.66;;;18.65;100.00
11349;BME280;5729;43.570;27.826;2023-04-03T13:25:26;98593.31;;;18.59;100.00
11349;BME280;5729;43.570;27.826;2023-04-03T13:27:53;98592.91;;;18.57;100.00
11349;BME280;5729;43.570;27.826;2023-04-03T13:32:45;98564.69;;;18.27;100.00
11349;BME280;5729;43.570;27.826;2023-04-03T13:35:33;98587.13;;;18.15;100.00
11349;BME280;5729;43.570;27.826;2023-04-03T13:38:22;98601.16;;;17.94;100.00
11349;BME280;5729;43.570;27.826;2023-04-03T13:40:57;98596.81;;;17.73;100.00
11349;BME280;5729;43.570;27.826;2023-04-03T13:43:28;98592.19;;;17.47;100.00
11349;BME280;5729;43.570;27.826;2023-04-03T13:48:40;98603.09;;;17.47;100.00
11349;BME280;5729;43.570;27.826;2023-04-03T13:53:42;98603.13;;;17.16;100.00
11349;BME280;5729;43.570;27.826;2023-04-03T13:56:26;98598.41;;;16.93;100.00
11349;BME280;5729;43.570;27.826;2023-04-03T13:58:58;98608.69;;;17.09;100.00
11349;BME280;5729;43.570;27.826;2023-04-03T14:01:25;98593.09;;;16.83;100.00
11349;BME280;5729;43.570;27.826;2023-04-03T14:04:00;98610.56;;;16.85;100.00
11349;BME280;5729;43.570;27.826;2023-04-03T14:06:26;98616.50;;;16.80;100.00
11349;BME280;5729;43.570;27.826;2023-04-03T14:08:52;98608.91;;;16.64;100.00
11349;BME280;5729;43.570;27.826;2023-04-03T14:13:46;98623.00;;;16.52;100.00
11349;BME280;5729;43.570;27.826;2023-04-03T14:16:20;98604.88;;;16.42;100.00
11349;BME280;5729;43.570;27.826;2023-04-03T14:18:47;98622.06;;;16.36;100.00
11349;BME280;5729;43.570;27.826;2023-04-03T14:21:15;98619.84;;;16.23;100.00
11349;BME280;5729;43.570;27.826;2023-04-03T14:23:41;98607.47;;;16.19;100.00
11349;BME280;5729;43.570;27.826;2023-04-03T14:26:18;98631.66;;;16.06;100.00
11349;BME280;5729;43.570;27.826;2023-04-03T14:28:45;98634.22;;;15.83;100.00
11349;BME280;5729;43.570;27.826;2023-04-03T14:31:12;98629.19;;;15.81;100.00
11349;BME280;5729;43.570;27.826;2023-04-03T14:33:39;98636.63;;;15.74;100.00
11349;BME280;5729;43.570;27.826;2023-04-03T14:36:20;98637.09;;;15.65;100.00
11349;BME280;5729;43.570;27.826;2023-04-03T14:38:47;98646.84;;;15.52;100.00
11349;BME280;5729;43.570;27.826;2023-04-03T14:41:16;98640.41;;;15.28;100.00
11349;BME280;5729;43.570;27.826;2023-04-03T14:43:42;98644.34;;;15.20;100.00
11349;BME280;5729;43.570;27.826;2023-04-03T14:46:24;98649.41;;;15.14;100.00
11349;BME280;5729;43.570;27.826;2023-04-03T14:48:51;98648.31;;;15.01;100.00
11349;BME280;5729;43.570;27.826;2023-04-03T14:51:17;98653.75;;;15.01;100.00